.
WxDataArchive / Data Records for 2010-08-25
2010-08-24 August 2010 2010-08-26

Data Records for Wednesday, 25 August 2010

Time	Temp	Chill	HIndex	Humid	Dewpt	 Wind 	HiWind	WindDir	Rain 	Barom 
-----	----	-----	------	-----	-----	------	------	-------	-----	----- 
00:00	68.4	68.4	68.4	87	64.4	0	0	---	0.00	29.980 
00:05	68.3	68.3	68.3	88	64.6	0	0	---	0.00	29.980 
00:10	68.1	68.1	68.1	88	64.4	0	0	---	0.00	29.980 
00:15	67.8	67.8	67.8	89	64.4	0	0	---	0.00	29.975 
00:20	67.6	67.6	67.6	89	64.2	0	0	---	0.00	29.975 
00:25	67.4	67.4	67.4	89	64.0	0	0	---	0.00	29.975 
00:30	67.3	67.3	67.3	90	64.3	0	0	---	0.00	29.979 
00:35	67.1	67.1	67.1	90	64.1	0	0	---	0.00	29.979 
00:40	66.9	66.9	66.9	90	63.9	0	0	---	0.00	29.979 
00:45	66.8	66.8	66.8	90	63.8	0	0	---	0.00	29.975 
00:50	66.6	66.6	66.6	91	63.9	0	0	---	0.00	29.975 
00:55	66.4	66.4	66.4	91	63.7	0	0	---	0.00	29.975 
01:00	66.3	66.3	66.3	91	63.6	0	0	---	0.00	29.974 
01:05	66.1	66.1	66.1	91	63.4	0	0	---	0.00	29.974 
01:10	66.1	66.1	66.1	91	63.4	0	0	---	0.00	29.974 
01:15	66.0	66.0	66.0	92	63.6	0	0	---	0.00	29.972 
01:20	65.8	65.8	65.8	92	63.4	0	0	---	0.00	29.972 
01:25	65.6	65.6	65.6	92	63.2	0	0	---	0.00	29.972 
01:30	65.5	65.5	65.5	92	63.1	0	0	---	0.00	29.975 
01:35	65.3	65.3	65.3	92	62.9	0	0	---	0.00	29.975 
01:40	65.2	65.2	65.2	92	62.8	0	0	---	0.00	29.975 
01:45	65.2	65.2	65.2	92	62.8	0	0	---	0.00	29.974 
01:50	65.0	65.0	65.0	93	62.9	0	0	---	0.00	29.974 
01:55	64.8	64.8	64.8	93	62.7	0	0	---	0.00	29.974 
02:00	64.7	64.7	64.7	93	62.6	0	0	---	0.00	29.976 
02:05	64.7	64.7	64.7	93	62.6	0	0	---	0.00	29.976 
02:10	64.5	64.5	64.5	93	62.4	0	0	---	0.00	29.976 
02:15	64.5	64.5	64.5	93	62.4	0	0	---	0.00	29.971 
02:20	64.3	64.3	64.3	93	62.2	0	0	---	0.00	29.971 
02:25	64.2	64.2	64.2	93	62.1	0	0	---	0.00	29.971 
02:30	64.2	64.2	64.2	94	62.4	0	0	---	0.00	29.968 
02:35	64.2	64.2	64.2	94	62.4	0	0	---	0.00	29.968 
02:40	64.0	64.0	64.0	94	62.2	0	0	---	0.00	29.968 
02:45	64.2	64.2	64.2	94	62.4	0	0	---	0.00	29.968 
02:50	64.0	64.0	64.0	94	62.2	0	0	---	0.00	29.968 
02:55	64.0	64.0	64.0	94	62.2	0	0	---	0.00	29.968 
03:00	64.0	64.0	64.0	94	62.2	0	0	---	0.00	29.967 
03:05	64.0	64.0	64.0	94	62.2	0	0	---	0.00	29.967 
03:10	63.9	63.9	63.9	94	62.1	0	0	---	0.00	29.967 
03:15	63.9	63.9	63.9	94	62.1	0	0	---	0.00	29.965 
03:20	63.9	63.9	63.9	94	62.1	0	0	---	0.00	29.965 
03:25	63.9	63.9	63.9	95	62.4	0	0	---	0.00	29.965 
03:30	63.9	63.9	63.9	95	62.4	0	0	---	0.00	29.966 
03:35	63.9	63.9	63.9	95	62.4	0	0	---	0.00	29.966 
03:40	63.9	63.9	63.9	95	62.4	0	0	---	0.00	29.966 
03:45	63.9	63.9	63.9	95	62.4	0	0	---	0.00	29.966 
03:50	63.9	63.9	63.9	95	62.4	0	0	---	0.00	29.966 
03:55	63.9	63.9	63.9	95	62.4	0	0	---	0.00	29.966 
04:00	63.7	63.7	63.7	95	62.2	0	0	---	0.00	29.966 
04:05	63.9	63.9	63.9	95	62.4	0	0	---	0.00	29.966 
04:10	63.9	63.9	63.9	95	62.4	0	0	---	0.00	29.966 
04:15	63.9	63.9	63.9	95	62.4	0	0	---	0.00	29.965 
04:20	63.9	63.9	63.9	95	62.4	0	0	---	0.00	29.965 
04:25	63.9	63.9	63.9	95	62.4	0	0	---	0.00	29.965 
04:30	63.9	63.9	63.9	95	62.4	0	0	---	0.00	29.966 
04:35	63.9	63.9	63.9	95	62.4	0	0	---	0.00	29.966 
04:40	63.9	63.9	63.9	95	62.4	0	0	---	0.00	29.966 
04:45	64.0	64.0	64.0	95	62.5	0	0	---	0.00	29.965 
04:50	64.0	64.0	64.0	95	62.5	0	0	---	0.00	29.965 
04:55	64.0	64.0	64.0	95	62.5	0	0	---	0.00	29.965 
05:00	64.0	64.0	64.0	95	62.5	0	0	---	0.00	29.965 
05:05	64.0	64.0	64.0	95	62.5	0	0	---	0.00	29.965 
05:10	64.2	64.2	64.2	96	63.0	0	0	---	0.00	29.965 
05:15	64.3	64.3	64.3	96	63.1	0	0	---	0.00	29.968 
05:20	64.3	64.3	64.3	96	63.1	0	0	---	0.00	29.968 
05:25	64.2	64.2	64.2	96	63.0	0	0	---	0.00	29.968 
05:30	64.2	64.2	64.2	96	63.0	0	0	---	0.00	29.965 
05:35	64.2	64.2	64.2	96	63.0	0	0	---	0.00	29.965 
05:40	64.2	64.2	64.2	96	63.0	0	0	---	0.00	29.965 
05:45	64.3	64.3	64.3	96	63.1	0	0	---	0.00	29.968 
05:50	64.3	64.3	64.3	96	63.1	0	0	---	0.00	29.968 
05:55	64.5	64.5	64.5	96	63.3	0	0	---	0.00	29.968 
06:00	64.5	64.5	64.5	96	63.3	0	0	---	0.00	29.967 
06:05	64.5	64.5	64.5	96	63.3	0	0	---	0.00	29.967 
06:10	64.5	64.5	64.5	96	63.3	0	0	---	0.00	29.967 
06:15	64.5	64.5	64.5	96	63.3	0	0	---	0.00	29.969 
06:20	64.5	64.5	64.5	96	63.3	0	0	---	0.00	29.969 
06:25	64.5	64.5	64.5	96	63.3	0	0	---	0.00	29.969 
06:30	64.7	64.7	64.7	96	63.5	0	0	---	0.00	29.972 
06:35	64.7	64.7	64.7	96	63.5	0	0	---	0.00	29.972 
06:40	64.8	64.8	64.8	96	63.6	0	0	---	0.00	29.972 
06:45	65.0	65.0	65.0	96	63.8	0	0	---	0.00	29.978 
06:50	65.0	65.0	65.0	96	63.8	0	0	---	0.00	29.978 
06:55	65.2	65.2	65.2	96	64.0	0	0	---	0.00	29.978 
07:00	65.3	65.3	65.3	96	64.1	0	0	---	0.00	29.983 
07:05	65.3	65.3	65.3	96	64.1	0	0	---	0.00	29.983 
07:10	65.5	65.5	65.5	96	64.3	0	0	---	0.00	29.983 
07:15	65.6	65.6	65.6	96	64.4	0	0	---	0.00	29.982 
07:20	65.8	65.8	65.8	96	64.6	0	1	112	0.00	29.982 
07:25	65.8	65.8	65.8	96	64.6	0	1	112	0.00	29.982 
07:30	66.0	66.0	66.0	96	64.8	0	1	112	0.00	29.985 
07:35	66.1	66.1	66.1	95	64.6	0	0	---	0.00	29.985 
07:40	66.1	66.1	66.1	95	64.6	0	0	---	0.00	29.985 
07:45	66.1	66.1	66.1	95	64.6	0	0	---	0.00	29.986 
07:50	66.1	66.1	66.1	95	64.6	0	1	112	0.00	29.986 
07:55	66.1	66.1	66.1	94	64.3	0	1	112	0.00	29.986 
08:00	66.3	66.3	66.3	94	64.5	0	0	---	0.00	29.989 
08:05	66.3	66.3	66.3	94	64.5	0	0	---	0.00	29.989 
08:10	66.3	66.3	66.3	94	64.5	0	0	---	0.00	29.989 
08:15	66.3	66.3	66.3	93	64.2	0	0	---	0.00	29.989 
08:20	66.4	66.4	66.4	93	64.3	0	0	---	0.00	29.989 
08:25	66.6	66.6	66.6	93	64.5	0	1	112	0.00	29.989 
08:30	66.8	66.8	66.8	93	64.7	0	0	---	0.00	29.992 
08:35	66.9	66.9	66.9	92	64.5	0	1	112	0.00	29.992 
08:40	67.1	67.1	67.1	92	64.7	0	1	112	0.00	29.992 
08:45	67.3	67.3	67.3	91	64.6	0	1	112	0.00	29.998 
08:50	67.3	67.3	67.3	90	64.3	0	2	292	0.00	29.998 
08:55	67.4	67.4	67.4	89	64.0	0	2	292	0.00	29.998 
09:00	67.6	67.6	67.6	88	63.9	0	1	292	0.00	30.001 
09:05	67.6	67.6	67.6	88	63.9	0	0	---	0.00	30.001 
09:10	67.8	67.8	67.8	87	63.8	0	1	292	0.00	30.001 
09:15	67.9	67.9	67.9	86	63.5	0	1	292	0.00	30.002 
09:20	68.1	68.1	68.1	85	63.4	0	1	292	0.00	30.002 
09:25	68.4	68.4	68.4	83	63.0	0	3	270	0.00	30.002 
09:30	68.9	68.9	68.9	82	63.2	1	3	270	0.00	30.001 
09:35	69.6	69.6	69.6	80	63.1	0	2	315	0.00	30.001 
09:40	69.8	69.8	69.8	79	63.0	1	4	45	0.00	30.001 
09:45	69.6	69.6	69.6	77	62.1	1	4	292	0.00	30.002 
09:50	69.8	69.8	69.8	78	62.6	0	1	292	0.00	30.002 
09:55	69.8	69.8	69.8	78	62.6	0	2	292	0.00	30.002 
10:00	70.1	70.1	70.1	78	62.9	0	2	315	0.00	30.004 
10:05	70.9	70.9	70.9	76	62.9	0	2	315	0.00	30.004 
10:10	71.3	71.3	71.3	75	63.0	1	3	315	0.00	30.004 
10:15	71.8	71.8	71.8	73	62.7	1	4	315	0.00	30.005 
10:20	72.1	72.1	72.1	71	62.2	1	5	0	0.00	30.005 
10:25	72.5	72.5	72.5	69	61.7	1	3	0	0.00	30.005 
10:30	72.7	72.7	72.7	69	61.9	1	4	292	0.00	30.004 
10:35	73.2	73.2	73.2	67	61.6	1	5	292	0.00	30.004 
10:40	73.5	73.5	73.5	66	61.4	0	2	338	0.00	30.004 
10:45	73.9	73.9	73.9	66	61.8	1	3	270	0.00	30.002 
10:50	74.4	74.4	74.4	64	61.4	0	3	270	0.00	30.002 
10:55	74.9	74.9	74.9	63	61.4	1	3	270	0.00	30.002 
11:00	75.1	75.1	77.3	62	61.2	1	4	292	0.00	30.003 
11:05	75.1	75.1	77.3	62	61.2	1	3	292	0.00	30.003 
11:10	75.6	75.6	77.7	60	60.7	0	2	0	0.00	30.003 
11:15	75.8	75.8	77.9	59	60.4	1	4	0	0.00	30.006 
11:20	75.8	75.8	77.9	58	59.9	1	3	315	0.00	30.006 
11:25	76.0	76.0	78.1	56	59.2	1	4	315	0.00	30.006 
11:30	76.1	76.1	78.1	57	59.7	1	3	270	0.00	30.012 
11:35	76.5	76.5	78.4	55	59.1	1	3	315	0.00	30.012 
11:40	76.8	76.8	78.6	55	59.4	1	2	315	0.00	30.012 
11:45	77.2	77.2	78.9	55	59.8	1	3	315	0.00	30.010 
11:50	77.7	77.7	79.1	52	58.6	1	4	338	0.00	30.010 
11:55	77.7	77.7	79.1	51	58.1	2	5	270	0.00	30.010 
12:00	77.7	77.7	79.1	51	58.1	1	5	292	0.00	30.006 
12:05	78.1	78.1	79.3	50	57.9	1	4	270	0.00	30.006 
12:10	78.5	78.5	79.6	50	58.3	1	3	292	0.00	30.006 
12:15	78.6	78.6	79.4	46	56.1	1	2	292	0.00	30.011 
12:20	78.8	78.8	79.6	46	56.2	1	4	315	0.00	30.011 
12:25	78.5	78.5	79.3	45	55.4	2	5	315	0.00	30.011 
12:30	78.5	78.5	79.3	45	55.4	2	4	315	0.00	30.012 
12:35	78.8	78.8	79.4	44	55.0	1	4	315	0.00	30.012 
12:40	79.0	79.0	79.7	46	56.4	1	3	22	0.00	30.012 
12:45	79.2	79.2	79.8	45	56.0	1	3	338	0.00	30.011 
12:50	79.2	79.2	79.7	44	55.4	1	4	292	0.00	30.011 
12:55	79.6	79.6	80.0	44	55.7	1	4	270	0.00	30.011 
13:00	79.6	79.6	79.9	43	55.1	1	4	315	0.00	30.009 
13:05	79.6	79.6	79.7	41	53.8	2	7	315	0.00	30.009 
13:10	79.4	79.4	79.5	39	52.3	3	7	315	0.00	30.009 
13:15	79.2	79.2	79.4	40	52.8	2	5	292	0.00	30.013 
13:20	79.8	79.8	79.8	40	53.3	2	7	292	0.00	30.013 
13:25	79.6	79.6	79.5	38	51.7	2	5	292	0.00	30.013 
13:30	79.8	79.8	79.5	36	50.4	2	4	338	0.00	30.008 
13:35	79.8	79.8	79.7	39	52.6	1	4	292	0.00	30.008 
13:40	80.3	80.3	80.1	39	53.1	1	5	292	0.00	30.008 
13:45	80.1	80.1	79.9	39	52.9	2	5	315	0.00	30.002 
13:50	79.9	79.9	79.8	39	52.7	2	5	315	0.00	30.002 
13:55	79.8	79.8	79.6	37	51.2	2	5	315	0.00	30.002 
14:00	79.6	79.6	79.4	36	50.3	2	5	315	0.00	30.003 
14:05	79.6	79.6	79.6	39	52.4	2	5	270	0.00	30.003 
14:10	80.3	80.3	80.1	40	53.8	0	2	270	0.00	30.003 
14:15	80.9	80.9	80.2	36	51.4	2	5	315	0.00	30.000 
14:20	80.5	80.5	79.9	36	51.1	2	6	270	0.00	30.000 
14:25	80.5	80.5	79.9	35	50.3	2	5	292	0.00	30.000 
14:30	80.7	80.7	80.1	36	51.2	1	4	292	0.00	30.000 
14:35	81.1	81.1	80.4	36	51.6	1	3	315	0.00	30.000 
14:40	80.7	80.7	80.1	36	51.2	1	4	315	0.00	30.000 
14:45	81.1	81.1	80.3	35	50.8	1	5	270	0.00	29.997 
14:50	81.2	81.2	80.3	34	50.1	2	6	292	0.00	29.997 
14:55	81.4	81.4	80.3	33	49.5	2	9	270	0.00	29.997 
15:00	81.6	81.6	80.5	33	49.7	3	7	270	0.00	29.990 
15:05	81.2	81.2	80.1	32	48.5	2	5	315	0.00	29.990 
15:10	81.1	81.1	80.3	35	50.8	1	4	292	0.00	29.990 
15:15	81.2	81.2	80.3	35	50.9	1	3	292	0.00	29.987 
15:20	81.4	81.4	80.5	35	51.1	1	4	315	0.00	29.987 
15:25	80.7	80.7	80.1	36	51.2	2	4	315	0.00	29.987 
15:30	80.7	80.7	80.1	36	51.2	2	4	292	0.00	29.986 
15:35	80.5	80.5	80.0	37	51.8	2	4	292	0.00	29.986 
15:40	80.5	80.5	79.9	36	51.1	1	3	315	0.00	29.986 
15:45	80.7	80.7	80.2	37	52.0	2	4	315	0.00	29.984 
15:50	81.1	81.1	80.4	36	51.6	1	2	315	0.00	29.984 
15:55	81.2	81.2	80.3	35	50.9	3	12	338	0.00	29.984 
16:00	81.2	81.2	80.3	35	50.9	1	3	292	0.00	29.984 
16:05	81.2	81.2	80.3	34	50.1	2	5	292	0.00	29.984 
16:10	81.1	81.1	80.1	33	49.2	3	7	270	0.00	29.984 
16:15	80.9	80.9	80.1	34	49.9	3	6	270	0.00	29.985 
16:20	81.1	81.1	80.3	35	50.8	1	3	315	0.00	29.985 
16:25	80.9	80.9	80.1	35	50.7	2	4	338	0.00	29.985 
16:30	80.9	80.9	80.1	35	50.7	2	4	338	0.00	29.985 
16:35	80.9	80.9	80.2	36	51.4	1	4	292	0.00	29.985 
16:40	80.9	80.9	80.1	35	50.7	2	5	292	0.00	29.985 
16:45	80.9	80.9	80.2	36	51.4	2	6	338	0.00	29.985 
16:50	80.3	80.3	79.8	36	50.9	1	5	292	0.00	29.985 
16:55	79.9	79.9	79.8	39	52.7	1	4	315	0.00	29.985 
17:00	79.6	79.6	79.5	38	51.7	1	6	270	0.00	29.985 
17:05	79.2	79.2	79.3	39	52.1	1	3	270	0.00	29.985 
17:10	79.6	79.6	79.6	39	52.4	1	4	315	0.00	29.985 
17:15	79.9	79.9	79.7	38	52.0	2	4	292	0.00	29.984 
17:20	80.1	80.1	79.8	37	51.5	2	4	292	0.00	29.984 
17:25	79.8	79.8	79.6	37	51.2	2	7	315	0.00	29.984 
17:30	79.8	79.8	79.6	37	51.2	2	4	292	0.00	29.988 
17:35	79.9	79.9	79.7	38	52.0	2	5	292	0.00	29.988 
17:40	79.9	79.9	79.7	38	52.0	1	4	292	0.00	29.988 
17:45	79.8	79.8	79.6	37	51.2	1	3	0	0.00	29.991 
17:50	79.6	79.6	79.5	38	51.7	1	2	315	0.00	29.991 
17:55	79.2	79.2	79.3	38	51.4	1	4	315	0.00	29.991 
18:00	79.0	79.0	79.2	38	51.2	1	4	270	0.00	29.992 
18:05	79.0	79.0	79.2	39	51.9	1	3	292	0.00	29.992 
18:10	79.0	79.0	79.2	38	51.2	2	6	270	0.00	29.992 
18:15	78.8	78.8	79.0	38	51.0	1	4	292	0.00	29.999 
18:20	78.5	78.5	78.9	38	50.8	2	6	270	0.00	29.999 
18:25	78.1	78.1	78.7	38	50.4	1	4	315	0.00	29.999 
18:30	77.9	77.9	78.6	39	50.9	2	5	270	0.00	30.004 
18:35	77.7	77.7	78.5	39	50.7	2	6	270	0.00	30.004 
18:40	77.6	77.6	78.5	39	50.7	1	3	292	0.00	30.004 
18:45	77.2	77.2	78.3	40	51.0	1	4	292	0.00	30.008 
18:50	76.8	76.8	78.1	40	50.6	1	4	270	0.00	30.008 
18:55	76.5	76.5	78.1	41	51.0	1	5	292	0.00	30.008 
19:00	76.3	76.3	78.0	42	51.5	1	2	315	0.00	30.015 
19:05	76.3	76.3	78.0	42	51.5	0	3	315	0.00	30.015 
19:10	76.0	76.0	77.9	41	50.6	1	5	315	0.00	30.015 
19:15	75.6	75.6	77.7	42	50.9	3	6	292	0.00	30.017 
19:20	75.3	75.3	77.6	42	50.6	1	6	315	0.00	30.017 
19:25	75.1	75.1	77.6	43	51.1	2	5	292	0.00	30.017 
19:30	74.7	74.7	74.7	43	50.7	1	4	292	0.00	30.020 
19:35	74.6	74.6	74.6	43	50.6	2	4	292	0.00	30.020 
19:40	74.2	74.2	74.2	43	50.2	1	4	315	0.00	30.020 
19:45	74.0	74.0	74.0	43	50.1	1	5	292	0.00	30.024 
19:50	73.7	73.7	73.7	44	50.4	1	3	292	0.00	30.024 
19:55	73.3	73.3	73.3	45	50.7	0	3	315	0.00	30.024 
20:00	73.0	73.0	73.0	45	50.4	1	5	292	0.00	30.034 
20:05	72.7	72.7	72.7	45	50.1	1	5	292	0.00	30.034 
20:10	72.5	72.5	72.5	46	50.5	0	2	292	0.00	30.034 
20:15	72.1	72.1	72.1	46	50.2	0	1	292	0.00	30.034 
20:20	71.8	71.8	71.8	47	50.5	0	1	292	0.00	30.034 
20:25	71.6	71.6	71.6	47	50.3	0	1	292	0.00	30.034 
20:30	71.3	71.3	71.3	47	50.0	1	4	292	0.00	30.037 
20:35	71.1	71.1	71.1	48	50.4	1	3	292	0.00	30.037 
20:40	70.9	70.9	70.9	48	50.2	1	2	292	0.00	30.037 
20:45	70.6	70.6	70.6	49	50.5	0	4	292	0.00	30.040 
20:50	70.4	70.4	70.4	49	50.3	0	1	292	0.00	30.040 
20:55	70.1	70.1	70.1	50	50.6	0	2	292	0.00	30.040 
21:00	69.8	69.8	69.8	51	50.8	0	1	292	0.00	30.052 
21:05	69.4	69.4	69.4	52	51.0	0	1	292	0.00	30.052 
21:10	69.1	69.1	69.1	52	50.7	0	1	292	0.00	30.052 
21:15	68.8	68.8	68.8	53	51.0	0	0	---	0.00	30.054 
21:20	68.6	68.6	68.6	54	51.3	0	0	---	0.00	30.054 
21:25	68.3	68.3	68.3	54	51.0	0	0	---	0.00	30.054 
21:30	67.9	67.9	67.9	55	51.1	0	0	---	0.00	30.064 
21:35	67.6	67.6	67.6	56	51.3	0	0	---	0.00	30.064 
21:40	67.3	67.3	67.3	57	51.5	0	0	---	0.00	30.064 
21:45	66.9	66.9	66.9	57	51.2	0	0	---	0.00	30.068 
21:50	66.4	66.4	66.4	58	51.2	0	0	---	0.00	30.068 
21:55	66.3	66.3	66.3	59	51.5	0	0	---	0.00	30.068 
22:00	66.0	66.0	66.0	60	51.7	0	0	---	0.00	30.069 
22:05	65.8	65.8	65.8	60	51.5	0	0	---	0.00	30.069 
22:10	65.6	65.6	65.6	61	51.8	0	0	---	0.00	30.069 
22:15	65.5	65.5	65.5	61	51.7	0	0	---	0.00	30.066 
22:20	65.3	65.3	65.3	62	51.9	0	0	---	0.00	30.066 
22:25	65.3	65.3	65.3	62	51.9	0	0	---	0.00	30.066 
22:30	65.2	65.2	65.2	62	51.8	0	0	---	0.00	30.071 
22:35	65.0	65.0	65.0	63	52.1	0	0	---	0.00	30.071 
22:40	65.0	65.0	65.0	63	52.1	0	0	---	0.00	30.071 
22:45	64.8	64.8	64.8	63	51.9	0	0	---	0.00	30.072 
22:50	64.8	64.8	64.8	64	52.3	0	0	---	0.00	30.072 
22:55	64.7	64.7	64.7	64	52.2	0	1	292	0.00	30.072 
23:00	64.8	64.8	64.8	65	52.8	0	0	---	0.00	30.077 
23:05	64.8	64.8	64.8	65	52.8	0	0	---	0.00	30.077 
23:10	64.7	64.7	64.7	65	52.7	0	0	---	0.00	30.077 
23:15	64.5	64.5	64.5	66	52.9	0	0	---	0.00	30.080 
23:20	64.3	64.3	64.3	67	53.1	0	0	---	0.00	30.080 
23:25	64.2	64.2	64.2	67	53.0	0	0	---	0.00	30.080 
23:30	64.0	64.0	64.0	68	53.2	0	0	---	0.00	30.082 
23:35	63.9	63.9	63.9	69	53.5	0	0	---	0.00	30.082 
23:40	63.9	63.9	63.9	69	53.5	0	0	---	0.00	30.082 
23:45	63.7	63.7	63.7	69	53.3	0	0	---	0.00	30.080 
23:50	63.5	63.5	63.5	70	53.5	0	0	---	0.00	30.080 
23:55	63.4	63.4	63.4	70	53.4	0	0	---	0.00	30.080 

CoCoRaHS
IN-AL-39
A2 Web Hosting
Creative Commons License
GoDaddy
search engine by freefind advanced

loaded 2018-11-14 04:52:47 • last modified 2010-11-18 10:43:29
Privacy PolicyDisclaimer
• wx.awcolley.com is powered by PmWiki v.2002016 •
• all content (unless otherwise noted) © 2018 A W Colley